createdAt,value
2017-10-30T00:02:19.831Z,73.80
2017-10-30T00:04:47.425Z,73.70
2017-10-30T00:07:15.002Z,73.80
2017-10-30T00:09:42.665Z,73.80
2017-10-30T00:12:10.212Z,73.80
2017-10-30T00:14:37.858Z,73.80
2017-10-30T00:17:05.417Z,73.70
2017-10-30T00:19:33.087Z,73.70
2017-10-30T00:22:00.727Z,73.80
2017-10-30T00:24:28.311Z,73.80
2017-10-30T00:26:55.888Z,73.80
2017-10-30T00:29:23.502Z,73.80
2017-10-30T00:31:51.096Z,73.90
2017-10-30T00:34:18.752Z,73.90
2017-10-30T00:36:46.335Z,73.90
2017-10-30T00:39:13.977Z,73.90
2017-10-30T00:41:41.547Z,74.00
2017-10-30T00:44:09.215Z,73.90
2017-10-30T00:46:36.781Z,73.90
2017-10-30T00:49:04.346Z,74.00
2017-10-30T00:51:31.897Z,74.00
2017-10-30T00:53:59.525Z,73.90
2017-10-30T00:56:27.275Z,74.00
2017-10-30T00:58:54.847Z,74.00
2017-10-30T01:01:22.822Z,74.00
2017-10-30T01:03:50.466Z,74.10
2017-10-30T01:06:18.055Z,74.00
2017-10-30T01:08:45.675Z,74.10
2017-10-30T01:11:14.071Z,74.10
2017-10-30T01:13:41.914Z,74.10
2017-10-30T01:16:09.521Z,74.20
2017-10-30T01:18:37.915Z,74.20
2017-10-30T01:21:06.397Z,74.20
2017-10-30T01:23:33.941Z,74.20
2017-10-30T01:26:01.883Z,74.30
2017-10-30T01:28:30.240Z,74.30
2017-10-30T01:30:58.580Z,74.30
2017-10-30T01:33:26.167Z,74.20
2017-10-30T01:35:53.759Z,74.30
2017-10-30T01:38:21.711Z,74.40
2017-10-30T01:40:49.295Z,74.40
2017-10-30T01:43:17.670Z,74.40
2017-10-30T01:45:46.146Z,74.50
2017-10-30T01:48:14.479Z,74.50
2017-10-30T01:50:42.318Z,74.60
2017-10-30T01:53:09.887Z,74.60
2017-10-30T01:55:37.468Z,74.60
2017-10-30T01:58:05.071Z,74.60
2017-10-30T02:00:32.673Z,74.60
2017-10-30T02:03:00.646Z,74.60
2017-10-30T02:05:28.299Z,74.50
2017-10-30T02:07:55.874Z,74.40
2017-10-30T02:10:23.470Z,74.50
2017-10-30T02:12:51.026Z,74.40
2017-10-30T02:15:18.958Z,74.30
2017-10-30T02:17:46.538Z,74.30
2017-10-30T02:20:14.104Z,74.30
2017-10-30T02:22:41.719Z,74.30
2017-10-30T02:25:09.275Z,74.20
2017-10-30T02:27:37.211Z,74.10
2017-10-30T02:30:04.767Z,74.20
2017-10-30T02:32:32.318Z,74.20
2017-10-30T02:34:59.915Z,74.30
2017-10-30T02:37:27.523Z,74.30
2017-10-30T02:39:55.469Z,74.20
2017-10-30T02:42:23.813Z,73.90
2017-10-30T02:44:51.388Z,74.00
2017-10-30T02:47:18.981Z,73.80
2017-10-30T02:49:46.546Z,73.70
2017-10-30T02:52:14.411Z,73.60
2017-10-30T02:54:41.963Z,73.50
2017-10-30T02:57:10.335Z,73.20
2017-10-30T02:59:37.947Z,73.20
2017-10-30T03:02:05.542Z,73.20
2017-10-30T03:04:34.238Z,73.20
2017-10-30T03:07:02.599Z,73.10
2017-10-30T03:09:30.179Z,73.20
2017-10-30T03:11:58.547Z,73.00
2017-10-30T03:14:26.200Z,73.20
2017-10-30T03:16:54.092Z,73.00
2017-10-30T03:19:22.502Z,72.70
2017-10-30T03:21:50.065Z,72.70
2017-10-30T03:24:17.742Z,72.60
2017-10-30T03:26:45.345Z,72.50
2017-10-30T03:29:13.426Z,72.30
2017-10-30T03:31:41.764Z,72.20
2017-10-30T03:34:09.308Z,72.30
2017-10-30T03:36:36.892Z,72.20
2017-10-30T03:39:04.486Z,72.00
2017-10-30T03:41:32.556Z,71.90
2017-10-30T03:44:00.110Z,71.80
2017-10-30T03:46:27.722Z,71.70
2017-10-30T03:48:55.350Z,71.60
2017-10-30T03:51:23.680Z,71.30
2017-10-30T03:53:51.557Z,71.40
2017-10-30T03:56:19.121Z,71.50
2017-10-30T03:58:46.670Z,71.40
2017-10-30T04:01:14.693Z,71.30
2017-10-30T04:03:43.076Z,71.10
2017-10-30T04:06:10.679Z,71.20
2017-10-30T04:08:38.337Z,71.10
2017-10-30T04:11:05.899Z,71.10
2017-10-30T04:13:34.741Z,71.00
2017-10-30T04:16:03.056Z,71.00
2017-10-30T04:18:30.649Z,71.00
2017-10-30T04:20:58.253Z,71.10
2017-10-30T04:23:25.821Z,71.10
2017-10-30T04:25:53.908Z,71.10
2017-10-30T04:28:21.455Z,71.00
2017-10-30T04:30:49.072Z,70.90
2017-10-30T04:33:16.937Z,70.90
2017-10-30T04:35:44.488Z,70.90
2017-10-30T04:38:12.049Z,70.90
2017-10-30T04:40:39.951Z,70.70
2017-10-30T04:43:07.519Z,70.70
2017-10-30T04:45:35.116Z,70.80
2017-10-30T04:48:03.111Z,70.70
2017-10-30T04:50:30.686Z,70.80
2017-10-30T04:52:58.291Z,70.90
2017-10-30T04:55:25.885Z,70.90
2017-10-30T04:57:53.447Z,70.80
2017-10-30T05:00:21.497Z,70.80
2017-10-30T05:02:49.054Z,71.00
2017-10-30T05:05:16.598Z,71.00
2017-10-30T05:07:45.032Z,70.90
2017-10-30T05:10:12.578Z,71.00
2017-10-30T05:12:40.486Z,70.80
2017-10-30T05:15:08.866Z,70.80
2017-10-30T05:17:37.219Z,70.80
2017-10-30T05:20:04.843Z,70.90
2017-10-30T05:22:32.398Z,70.80
2017-10-30T05:25:00.266Z,70.70
2017-10-30T05:27:27.836Z,70.70
2017-10-30T05:29:55.406Z,70.90
2017-10-30T05:32:23.043Z,70.90
2017-10-30T05:34:51.362Z,70.90
2017-10-30T05:37:19.293Z,70.90
2017-10-30T05:39:47.620Z,70.90
2017-10-30T05:42:15.278Z,70.80
2017-10-30T05:44:42.928Z,70.80
2017-10-30T05:47:10.479Z,70.90
2017-10-30T05:49:38.325Z,71.00
2017-10-30T05:52:05.947Z,71.10
2017-10-30T05:54:33.539Z,71.30
2017-10-30T05:57:01.888Z,71.50
2017-10-30T05:59:29.438Z,71.50
2017-10-30T06:01:58.163Z,71.60
2017-10-30T06:04:25.754Z,71.50
2017-10-30T06:06:53.327Z,71.70
2017-10-30T06:09:20.895Z,71.70
2017-10-30T06:11:48.434Z,71.70
2017-10-30T06:14:16.389Z,71.60
2017-10-30T06:16:44.726Z,71.50
2017-10-30T06:19:12.315Z,71.50
2017-10-30T06:21:40.706Z,71.50
2017-10-30T06:24:09.056Z,71.50
2017-10-30T06:26:36.939Z,71.40
2017-10-30T06:29:05.689Z,71.50
2017-10-30T06:31:34.344Z,71.80
2017-10-30T06:34:02.752Z,71.70
2017-10-30T06:36:31.536Z,71.90
2017-10-30T06:39:01.234Z,72.20
2017-10-30T06:41:30.712Z,71.60
2017-10-30T06:43:59.839Z,71.30
2017-10-30T06:46:28.338Z,71.60
2017-10-30T06:48:57.750Z,71.30
2017-10-30T06:51:26.772Z,72.30
2017-10-30T06:53:58.144Z,71.10
2017-10-30T06:56:28.181Z,71.10
2017-10-30T06:58:56.848Z,71.50
2017-10-30T07:01:25.680Z,71.50
2017-10-30T07:03:54.068Z,71.60
2017-10-30T07:06:22.318Z,71.50
2017-10-30T07:08:51.037Z,71.50
2017-10-30T07:11:19.645Z,71.40
2017-10-30T07:13:48.386Z,71.50
2017-10-30T07:16:17.399Z,71.30
2017-10-30T07:18:45.903Z,71.20
2017-10-30T07:21:13.779Z,71.30
2017-10-30T07:23:41.531Z,71.30
2017-10-30T07:26:09.403Z,71.00
2017-10-30T07:28:39.169Z,71.20
2017-10-30T07:31:07.120Z,71.20
2017-10-30T07:33:35.707Z,70.90
2017-10-30T07:36:07.404Z,71.00
2017-10-30T07:38:41.906Z,71.00
2017-10-30T07:41:10.741Z,71.40
2017-10-30T07:43:39.408Z,70.70
2017-10-30T07:46:08.304Z,70.70
2017-10-30T07:48:38.909Z,70.70
2017-10-30T07:51:07.270Z,70.60
2017-10-30T07:53:34.980Z,70.70
2017-10-30T07:56:02.555Z,70.40
2017-10-30T07:58:30.505Z,70.40
2017-10-30T08:00:58.106Z,70.40
2017-10-30T08:03:26.461Z,70.20
2017-10-30T08:05:54.350Z,70.20
2017-10-30T08:26:12.273Z,69.20
2017-10-30T08:42:12.377Z,69.00
2017-10-30T08:44:39.902Z,68.60
2017-10-30T08:47:07.450Z,68.00
2017-10-30T08:49:34.958Z,67.80
2017-10-30T08:52:02.477Z,67.40
2017-10-30T08:54:30.045Z,67.10
2017-10-30T08:56:58.335Z,67.50
2017-10-30T08:59:25.879Z,67.50
2017-10-30T09:01:54.304Z,67.20
2017-10-30T09:04:22.185Z,67.30
2017-10-30T09:06:49.710Z,66.90
2017-10-30T09:09:17.242Z,66.20
2017-10-30T09:11:44.793Z,65.90
2017-10-30T09:14:12.290Z,65.80
2017-10-30T09:16:39.837Z,65.20
2017-10-30T09:19:08.118Z,64.50
2017-10-30T09:21:36.456Z,64.50
2017-10-30T09:24:03.968Z,64.60
2017-10-30T09:26:31.726Z,64.40
2017-10-30T09:28:59.328Z,64.20
2017-10-30T09:31:26.827Z,64.00
2017-10-30T09:33:54.385Z,63.90
2017-10-30T09:36:22.685Z,63.90
2017-10-30T09:38:51.019Z,63.80
2017-10-30T09:41:18.542Z,63.80
2017-10-30T09:43:46.059Z,63.40
2017-10-30T09:46:14.382Z,61.20
2017-10-30T09:48:41.899Z,61.20
2017-10-30T09:51:09.498Z,61.00
2017-10-30T09:53:37.018Z,60.90
2017-10-30T09:56:04.560Z,60.30
2017-10-30T09:58:32.118Z,60.20
2017-10-30T10:00:59.644Z,60.60
2017-10-30T10:03:27.245Z,59.90
2017-10-30T10:05:54.797Z,59.40
2017-10-30T10:08:25.590Z,59.30
2017-10-30T10:10:53.183Z,59.40
2017-10-30T10:13:20.679Z,59.10
2017-10-30T10:15:48.274Z,58.80
2017-10-30T10:18:15.783Z,58.90
2017-10-30T10:20:44.208Z,58.30
2017-10-30T10:23:11.866Z,58.00
2017-10-30T10:25:40.182Z,57.60
2017-10-30T10:28:08.047Z,57.60
2017-10-30T10:30:35.584Z,57.60
2017-10-30T10:33:03.130Z,57.40
2017-10-30T10:35:31.468Z,56.70
2017-10-30T10:37:59.046Z,56.70
2017-10-30T10:40:26.600Z,57.10
2017-10-30T10:42:54.131Z,56.90
2017-10-30T10:45:21.736Z,57.00
2017-10-30T10:47:49.255Z,56.80
2017-10-30T10:50:16.820Z,56.60
2017-10-30T10:52:44.392Z,56.40
2017-10-30T10:55:11.946Z,56.30
2017-10-30T10:57:39.490Z,55.80
2017-10-30T11:00:07.019Z,55.50
2017-10-30T11:02:35.342Z,55.40
2017-10-30T11:05:02.903Z,55.50
2017-10-30T11:07:30.457Z,55.30
2017-10-30T11:09:58.956Z,55.10
2017-10-30T11:12:26.470Z,54.90
2017-10-30T11:14:54.002Z,54.60
2017-10-30T11:17:22.314Z,53.60
2017-10-30T11:19:49.879Z,53.60
2017-10-30T11:22:17.420Z,53.40
2017-10-30T11:24:44.944Z,54.30
2017-10-30T11:27:12.499Z,54.10
2017-10-30T11:29:40.033Z,53.40
2017-10-30T11:32:07.576Z,52.90
2017-10-30T11:34:35.104Z,53.10
2017-10-30T11:37:02.650Z,51.90
2017-10-30T11:39:30.171Z,51.60
2017-10-30T11:41:57.721Z,51.80
2017-10-30T11:44:25.271Z,51.30
2017-10-30T11:46:52.821Z,51.20
2017-10-30T11:49:21.144Z,51.40
2017-10-30T11:51:48.667Z,51.30
2017-10-30T11:54:16.232Z,51.20
2017-10-30T11:56:43.773Z,51.30
2017-10-30T11:59:11.396Z,51.00
2017-10-30T12:01:38.933Z,50.90
2017-10-30T12:04:06.473Z,50.60
2017-10-30T12:06:34.046Z,50.50
2017-10-30T12:09:01.575Z,50.50
2017-10-30T12:11:29.166Z,50.60
2017-10-30T12:13:56.726Z,50.40
2017-10-30T12:16:24.288Z,50.40
2017-10-30T12:18:51.842Z,50.40
2017-10-30T12:21:19.394Z,51.30
2017-10-30T12:23:47.686Z,50.70
2017-10-30T12:26:15.223Z,50.70
2017-10-30T12:28:43.541Z,50.20
2017-10-30T12:31:11.057Z,50.10
2017-10-30T12:33:39.360Z,49.90
2017-10-30T12:36:06.916Z,49.80
2017-10-30T12:38:34.426Z,49.80
2017-10-30T12:41:01.961Z,49.80
2017-10-30T12:43:29.484Z,49.00
2017-10-30T12:45:57.021Z,50.30
2017-10-30T12:48:25.366Z,48.10
2017-10-30T12:50:52.922Z,48.00
2017-10-30T12:53:20.482Z,47.30
2017-10-30T12:55:48.026Z,46.70
2017-10-30T12:58:15.586Z,46.80
2017-10-30T13:00:43.119Z,47.70
2017-10-30T13:03:11.404Z,45.80
2017-10-30T13:05:39.717Z,44.90
2017-10-30T13:08:07.228Z,44.90
2017-10-30T13:10:34.768Z,44.40
2017-10-30T13:13:02.292Z,42.50
2017-10-30T13:15:30.579Z,42.20
2017-10-30T13:17:58.118Z,42.10
2017-10-30T13:20:25.682Z,40.90
2017-10-30T13:22:53.217Z,41.20
2017-10-30T13:25:21.434Z,41.30
2017-10-30T13:27:48.980Z,41.10
2017-10-30T13:30:17.288Z,41.20
2017-10-30T13:32:44.826Z,41.20
2017-10-30T13:35:12.398Z,41.80
2017-10-30T13:37:39.905Z,42.30
2017-10-30T13:40:08.210Z,43.40
2017-10-30T13:42:35.715Z,42.80
2017-10-30T13:45:03.254Z,42.50
2017-10-30T13:47:30.769Z,42.50
2017-10-30T13:49:59.065Z,42.80
2017-10-30T13:52:26.627Z,42.80
2017-10-30T13:54:54.374Z,42.90
2017-10-30T13:57:22.654Z,42.50
2017-10-30T13:59:51.035Z,42.00
2017-10-30T14:02:19.349Z,42.30
2017-10-30T14:04:46.955Z,42.20
2017-10-30T14:07:14.462Z,41.90
2017-10-30T14:09:41.993Z,42.50
2017-10-30T14:12:10.275Z,41.80
2017-10-30T14:14:38.578Z,41.90
2017-10-30T14:17:06.089Z,41.90
2017-10-30T14:19:33.624Z,42.30
2017-10-30T14:22:01.919Z,42.60
2017-10-30T14:24:29.468Z,42.70
2017-10-30T14:26:56.994Z,42.90
2017-10-30T14:29:24.864Z,43.00
2017-10-30T14:31:52.422Z,43.10
2017-10-30T14:34:20.718Z,43.30
2017-10-30T14:36:49.031Z,43.30
2017-10-30T14:39:16.712Z,43.30
2017-10-30T14:41:45.054Z,43.50
2017-10-30T14:44:12.568Z,43.40
2017-10-30T14:46:40.084Z,43.30
2017-10-30T14:49:07.634Z,43.50
2017-10-30T14:51:35.136Z,43.70
2017-10-30T14:54:03.464Z,43.60
2017-10-30T14:56:30.983Z,43.60
2017-10-30T14:58:58.546Z,43.60
2017-10-30T15:01:26.083Z,44.30
2017-10-30T15:03:54.374Z,44.10
2017-10-30T15:06:21.903Z,44.10
2017-10-30T15:08:49.488Z,44.10
2017-10-30T15:11:17.038Z,44.30
2017-10-30T15:13:45.354Z,44.20
2017-10-30T15:16:12.913Z,44.30
2017-10-30T15:18:40.459Z,44.30
2017-10-30T15:21:08.025Z,44.50
2017-10-30T15:23:35.568Z,44.60
2017-10-30T15:26:03.086Z,44.50
2017-10-30T15:28:30.634Z,44.50
2017-10-30T15:30:58.147Z,44.60
2017-10-30T15:33:26.430Z,45.50
2017-10-30T15:35:53.976Z,45.50
2017-10-30T15:38:22.245Z,45.70
2017-10-30T15:40:49.786Z,45.60
2017-10-30T15:43:17.305Z,45.70
2017-10-30T15:45:44.874Z,45.70
2017-10-30T15:48:12.396Z,45.80
2017-10-30T15:50:40.841Z,45.90
2017-10-30T15:53:08.400Z,45.90
2017-10-30T15:55:37.578Z,46.30
2017-10-30T15:58:05.128Z,46.30
2017-10-30T16:00:32.665Z,46.30
2017-10-30T16:03:00.244Z,46.40
2017-10-30T16:05:27.786Z,46.50
2017-10-30T16:07:57.325Z,46.60
2017-10-30T16:10:26.194Z,46.80
2017-10-30T16:12:53.710Z,46.80
2017-10-30T16:15:21.788Z,46.80
2017-10-30T16:17:49.314Z,47.00
2017-10-30T16:20:16.851Z,47.00
2017-10-30T16:22:44.370Z,47.10
2017-10-30T16:25:11.889Z,47.20
2017-10-30T16:27:39.440Z,47.40
2017-10-30T16:30:07.006Z,47.50
2017-10-30T16:32:34.564Z,47.60
2017-10-30T16:35:02.091Z,47.70
2017-10-30T16:37:30.364Z,48.00
2017-10-30T16:39:58.679Z,48.00
2017-10-30T16:42:26.204Z,48.00
2017-10-30T16:44:53.801Z,48.10
2017-10-30T16:47:21.325Z,48.20
2017-10-30T16:49:49.602Z,48.40
2017-10-30T16:52:17.917Z,48.50
2017-10-30T16:54:45.446Z,48.50
2017-10-30T16:57:14.565Z,48.80
2017-10-30T16:59:42.075Z,48.80
2017-10-30T17:02:09.595Z,48.90
2017-10-30T17:04:37.128Z,49.00
2017-10-30T17:07:05.425Z,49.20
2017-10-30T17:09:32.977Z,49.20
2017-10-30T17:12:00.489Z,49.40
2017-10-30T17:14:28.033Z,49.50
2017-10-30T17:16:55.572Z,49.60
2017-10-30T17:19:23.183Z,49.70
2017-10-30T17:21:50.835Z,49.80
2017-10-30T17:24:18.349Z,49.90
2017-10-30T17:26:45.861Z,49.90
2017-10-30T17:29:13.402Z,50.00
2017-10-30T17:31:40.934Z,50.10
2017-10-30T17:34:08.496Z,50.20
2017-10-30T17:36:36.016Z,50.20
2017-10-30T17:39:03.536Z,50.30
2017-10-30T17:41:31.090Z,50.40
2017-10-30T17:43:58.616Z,50.50
2017-10-30T17:46:26.188Z,50.50
2017-10-30T17:48:53.736Z,50.60
2017-10-30T17:51:22.015Z,50.80
2017-10-30T17:53:55.659Z,50.80
2017-10-30T17:56:23.179Z,50.80
2017-10-30T17:58:50.732Z,51.00
2017-10-30T18:01:19.008Z,51.10
2017-10-30T18:03:47.282Z,51.10
2017-10-30T18:06:15.606Z,51.20
2017-10-30T18:08:43.142Z,51.20
2017-10-30T18:11:11.599Z,51.40
2017-10-30T18:13:39.330Z,51.70
2017-10-30T18:16:07.014Z,51.60
2017-10-30T18:18:36.629Z,51.80
2017-10-30T18:21:04.285Z,52.00
2017-10-30T18:23:32.085Z,52.00
2017-10-30T18:25:59.784Z,52.00
2017-10-30T18:28:29.327Z,52.10
2017-10-30T18:30:58.056Z,52.20
2017-10-30T18:33:25.964Z,52.50
2017-10-30T18:35:53.627Z,52.40
2017-10-30T18:38:22.210Z,52.00
2017-10-30T18:40:49.808Z,52.50
2017-10-30T18:43:18.187Z,52.70
2017-10-30T18:45:46.521Z,52.70
2017-10-30T18:48:14.163Z,52.70
2017-10-30T18:50:42.504Z,52.90
2017-10-30T18:53:10.854Z,53.00
2017-10-30T18:55:38.482Z,53.20
2017-10-30T18:58:06.159Z,53.00
2017-10-30T19:00:34.236Z,53.00
2017-10-30T19:03:03.425Z,53.10
2017-10-30T19:05:32.445Z,53.10
2017-10-30T19:08:01.560Z,53.10
2017-10-30T19:10:29.645Z,53.50
2017-10-30T19:12:57.967Z,53.60
2017-10-30T19:15:26.204Z,53.40
2017-10-30T19:17:54.471Z,53.40
2017-10-30T19:20:22.163Z,53.40
2017-10-30T19:22:50.054Z,53.40
2017-10-30T19:25:18.189Z,53.60
2017-10-30T19:27:45.771Z,53.60
2017-10-30T19:30:13.559Z,53.50
2017-10-30T19:32:41.207Z,53.40
2017-10-30T19:35:08.890Z,53.50
2017-10-30T19:37:36.823Z,53.50
2017-10-30T19:40:04.439Z,53.60
2017-10-30T19:42:32.153Z,53.60
2017-10-30T19:45:00.779Z,53.70
2017-10-30T19:47:28.991Z,54.10
2017-10-30T19:49:57.563Z,54.10
2017-10-30T19:52:25.184Z,54.10
2017-10-30T19:54:52.827Z,53.90
2017-10-30T19:57:20.491Z,53.80
2017-10-30T19:59:48.129Z,53.90
2017-10-30T20:02:15.771Z,53.90
2017-10-30T20:04:43.413Z,54.00
2017-10-30T20:07:31.829Z,53.90
2017-10-30T20:10:05.561Z,53.90
2017-10-30T20:12:34.050Z,53.90
2017-10-30T20:15:01.752Z,54.00
2017-10-30T20:17:30.709Z,54.00
2017-10-30T20:20:00.457Z,53.90
2017-10-30T20:22:28.997Z,54.80
2017-10-30T20:24:57.158Z,54.30
2017-10-30T20:27:25.282Z,54.40
2017-10-30T20:29:53.569Z,54.40
2017-10-30T20:32:22.459Z,54.30
2017-10-30T20:34:55.517Z,54.00
2017-10-30T20:37:36.825Z,54.30
2017-10-30T20:40:04.432Z,54.30
2017-10-30T20:42:32.013Z,54.10
2017-10-30T20:44:59.647Z,54.00
2017-10-30T20:47:27.258Z,54.10
2017-10-30T20:49:55.738Z,54.10
2017-10-30T20:52:23.467Z,54.10
2017-10-30T20:54:51.078Z,54.10
2017-10-30T20:57:18.706Z,54.10
2017-10-30T20:59:46.547Z,54.20
2017-10-30T21:02:18.992Z,54.50
2017-10-30T21:04:50.881Z,54.60
2017-10-30T21:07:23.998Z,54.40
2017-10-30T21:10:23.496Z,54.30
2017-10-30T21:13:16.128Z,54.60
2017-10-30T21:18:37.566Z,54.60
2017-10-30T21:21:05.123Z,54.50
2017-10-30T21:23:32.672Z,54.40
2017-10-30T21:26:01.025Z,54.30
2017-10-30T21:28:28.551Z,54.30
2017-10-30T21:30:56.152Z,54.40
2017-10-30T21:33:23.772Z,54.40
2017-10-30T21:35:51.371Z,54.60
2017-10-30T21:38:18.893Z,54.80
2017-10-30T21:40:46.480Z,55.00
2017-10-30T21:43:14.870Z,55.30
2017-10-30T21:45:42.563Z,55.30
2017-10-30T21:48:10.209Z,55.40
2017-10-30T21:50:38.634Z,55.50
2017-10-30T21:53:06.288Z,55.60
2017-10-30T21:55:35.151Z,55.80
2017-10-30T21:58:02.902Z,55.80
2017-10-30T22:00:31.296Z,56.00
2017-10-30T22:02:59.575Z,56.10
2017-10-30T22:05:27.904Z,56.20
2017-10-30T22:07:55.444Z,56.20
2017-10-30T22:10:22.957Z,56.40
2017-10-30T22:12:50.532Z,56.40
2017-10-30T22:15:18.052Z,56.50
2017-10-30T22:17:49.251Z,56.70
2017-10-30T22:20:17.542Z,57.00
2017-10-30T22:22:45.069Z,57.00
2017-10-30T22:25:12.654Z,57.20
2017-10-30T22:27:40.958Z,57.60
2017-10-30T22:30:08.505Z,57.60
2017-10-30T22:32:36.035Z,57.60
2017-10-30T22:35:03.621Z,57.60
2017-10-30T22:37:31.154Z,58.10
2017-10-30T22:39:58.675Z,57.90
2017-10-30T22:42:26.217Z,57.90
2017-10-30T22:44:53.750Z,57.90
2017-10-30T22:47:22.050Z,58.00
2017-10-30T22:49:49.563Z,58.00
2017-10-30T22:52:17.085Z,58.10
2017-10-30T22:54:44.734Z,58.10
2017-10-30T22:57:12.265Z,58.10
2017-10-30T22:59:40.601Z,58.30
2017-10-30T23:02:08.123Z,58.30
2017-10-30T23:04:35.666Z,58.30
2017-10-30T23:07:03.168Z,58.40
2017-10-30T23:09:30.699Z,58.40
2017-10-30T23:11:58.265Z,58.40
2017-10-30T23:14:25.782Z,58.50
2017-10-30T23:16:53.319Z,58.60
2017-10-30T23:19:20.851Z,58.70
2017-10-30T23:21:48.437Z,58.80
2017-10-30T23:24:15.952Z,58.90
2017-10-30T23:26:44.241Z,59.10
2017-10-30T23:29:11.797Z,59.00
2017-10-30T23:31:39.344Z,59.10
2017-10-30T23:34:07.643Z,59.20
2017-10-30T23:36:35.231Z,59.10
2017-10-30T23:39:02.825Z,59.10
2017-10-30T23:41:30.327Z,59.30
2017-10-30T23:43:57.837Z,59.30
2017-10-30T23:46:25.415Z,59.40
2017-10-30T23:48:53.709Z,59.70
2017-10-30T23:51:22.027Z,59.80
2017-10-30T23:53:49.542Z,59.80
2017-10-30T23:56:17.116Z,60.00
2017-10-30T23:58:44.640Z,60.20
